createdAt,value
2018-05-02T00:00:48.494Z,83.06
2018-05-02T00:01:48.508Z,82.78
2018-05-02T00:02:48.525Z,83.06
2018-05-02T00:03:48.545Z,82.97
2018-05-02T00:04:48.561Z,82.97
2018-05-02T00:05:48.577Z,83.25
2018-05-02T00:06:48.592Z,83.25
2018-05-02T00:07:48.613Z,82.91
2018-05-02T00:08:48.627Z,83.25
2018-05-02T00:09:48.639Z,82.97
2018-05-02T00:10:48.710Z,82.91
2018-05-02T00:11:48.669Z,82.91
2018-05-02T00:12:48.687Z,83.25
2018-05-02T00:13:48.708Z,83.29
2018-05-02T00:14:48.721Z,83.67
2018-05-02T00:15:48.770Z,82.87
2018-05-02T00:16:48.799Z,83.25
2018-05-02T00:17:48.770Z,83.77
2018-05-02T00:18:48.794Z,83.64
2018-05-02T00:19:48.806Z,83.64
2018-05-02T00:20:48.818Z,83.64
2018-05-02T00:21:48.865Z,83.44
2018-05-02T00:22:48.909Z,84.01
2018-05-02T00:23:48.875Z,83.64
2018-05-02T00:24:48.888Z,83.73
2018-05-02T00:25:48.908Z,83.48
2018-05-02T00:26:48.917Z,83.54
2018-05-02T00:27:48.934Z,83.64
2018-05-02T00:28:48.953Z,83.64
2018-05-02T00:29:48.969Z,83.44
2018-05-02T00:30:48.985Z,83.54
2018-05-02T00:31:49.004Z,84.25
2018-05-02T00:32:49.024Z,84.49
2018-05-02T00:33:49.035Z,84.06
2018-05-02T00:34:49.123Z,84.01
2018-05-02T00:35:49.070Z,84.01
2018-05-02T00:36:49.090Z,84.30
2018-05-02T00:37:49.103Z,83.92
2018-05-02T00:38:49.118Z,84.40
2018-05-02T00:39:49.140Z,84.11
2018-05-02T00:40:49.209Z,84.16
2018-05-02T00:41:49.182Z,83.92
2018-05-02T00:42:49.183Z,84.16
2018-05-02T00:43:49.207Z,84.16
2018-05-02T00:44:49.221Z,84.01
2018-05-02T00:45:49.235Z,83.96
2018-05-02T00:46:49.252Z,84.59
2018-05-02T00:47:49.272Z,84.97
2018-05-02T00:48:49.291Z,84.97
2018-05-02T00:49:49.306Z,85.35
2018-05-02T00:50:49.324Z,85.83
2018-05-02T00:51:49.342Z,86.40
2018-05-02T00:52:49.354Z,86.78
2018-05-02T00:53:49.371Z,86.59
2018-05-02T00:54:49.383Z,86.78
2018-05-02T00:55:49.406Z,86.30
2018-05-02T00:56:49.424Z,86.49
2018-05-02T00:57:49.449Z,86.49
2018-05-02T00:58:49.537Z,87.07
2018-05-02T00:59:49.472Z,87.16
2018-05-02T01:00:49.488Z,86.88
2018-05-02T01:01:49.500Z,87.26
2018-05-02T01:02:49.522Z,86.88
2018-05-02T01:03:49.531Z,86.69
2018-05-02T01:04:49.548Z,87.26
2018-05-02T01:05:49.569Z,86.88
2018-05-02T01:06:49.583Z,86.88
2018-05-02T01:07:49.602Z,87.16
2018-05-02T01:08:49.617Z,86.11
2018-05-02T01:09:49.637Z,86.69
2018-05-02T01:10:49.717Z,86.88
2018-05-02T01:11:49.670Z,87.26
2018-05-02T01:12:49.684Z,86.49
2018-05-02T01:13:49.707Z,86.02
2018-05-02T01:14:49.717Z,86.45
2018-05-02T01:15:49.737Z,86.55
2018-05-02T01:16:49.754Z,87.02
2018-05-02T01:17:49.763Z,87.50
2018-05-02T01:18:49.788Z,87.50
2018-05-02T01:19:49.798Z,87.35
2018-05-02T01:20:49.817Z,87.54
2018-05-02T01:21:49.830Z,88.26
2018-05-02T01:22:49.900Z,87.26
2018-05-02T01:23:49.865Z,87.93
2018-05-02T01:24:49.878Z,87.64
2018-05-02T01:25:49.894Z,88.40
2018-05-02T01:26:49.917Z,87.45
2018-05-02T01:27:49.926Z,87.64
2018-05-02T01:28:49.998Z,87.07
2018-05-02T01:29:50.023Z,87.21
2018-05-02T01:30:49.980Z,87.40
2018-05-02T01:31:50.002Z,87.93
2018-05-02T01:32:50.017Z,87.35
2018-05-02T01:33:50.035Z,87.26
2018-05-02T01:34:50.046Z,87.35
2018-05-02T01:35:50.089Z,87.45
2018-05-02T01:36:50.084Z,87.45
2018-05-02T01:37:50.100Z,88.26
2018-05-02T01:38:50.116Z,88.31
2018-05-02T01:39:50.135Z,87.93
2018-05-02T01:40:50.227Z,87.26
2018-05-02T01:41:50.164Z,87.45
2018-05-02T01:42:50.182Z,87.45
2018-05-02T01:43:50.202Z,87.64
2018-05-02T01:44:50.215Z,87.93
2018-05-02T01:45:50.227Z,87.54
2018-05-02T01:46:50.242Z,87.26
2018-05-02T01:47:50.266Z,87.26
2018-05-02T01:48:50.283Z,87.54
2018-05-02T01:49:50.293Z,87.45
2018-05-02T01:50:50.315Z,86.98
2018-05-02T01:51:50.326Z,87.64
2018-05-02T01:52:50.348Z,87.26
2018-05-02T01:53:50.360Z,87.45
2018-05-02T01:54:50.404Z,88.59
2018-05-02T01:55:50.397Z,87.35
2018-05-02T01:56:50.415Z,87.45
2018-05-02T01:57:50.426Z,87.26
2018-05-02T01:58:50.444Z,86.59
2018-05-02T01:59:50.464Z,85.83
2018-05-02T02:00:50.497Z,86.40
2018-05-02T02:01:50.490Z,86.59
2018-05-02T02:02:50.509Z,87.74
2018-05-02T02:03:50.531Z,88.21
2018-05-02T02:04:50.548Z,88.98
2018-05-02T02:05:50.564Z,88.21
2018-05-02T02:06:50.638Z,88.78
2018-05-02T02:07:50.594Z,88.88
2018-05-02T02:08:50.614Z,89.17
2018-05-02T02:09:50.627Z,89.26
2018-05-02T02:10:50.689Z,88.59
2018-05-02T02:11:50.661Z,89.12
2018-05-02T02:12:50.739Z,91.46
2018-05-02T02:13:50.694Z,90.79
2018-05-02T02:14:50.709Z,89.98
2018-05-02T02:15:50.724Z,89.12
2018-05-02T02:16:50.794Z,88.93
2018-05-02T02:17:50.756Z,88.93
2018-05-02T02:18:50.809Z,90.64
2018-05-02T02:19:50.789Z,88.93
2018-05-02T02:20:50.813Z,88.93
2018-05-02T02:21:50.828Z,89.89
2018-05-02T02:22:50.843Z,90.03
2018-05-02T02:23:50.857Z,89.54
2018-05-02T02:24:50.872Z,89.17
2018-05-02T02:25:50.891Z,89.36
2018-05-02T02:26:50.910Z,88.98
2018-05-02T02:27:50.925Z,88.59
2018-05-02T02:28:50.991Z,88.40
2018-05-02T02:29:50.955Z,88.50
2018-05-02T02:30:50.983Z,88.50
2018-05-02T02:31:50.989Z,88.59
2018-05-02T02:32:51.011Z,88.59
2018-05-02T02:33:51.025Z,88.88
2018-05-02T02:34:51.091Z,88.59
2018-05-02T02:35:51.057Z,88.31
2018-05-02T02:36:51.076Z,88.21
2018-05-02T02:37:51.095Z,87.83
2018-05-02T02:38:51.109Z,88.40
2018-05-02T02:39:51.126Z,88.59
2018-05-02T02:40:51.153Z,89.17
2018-05-02T02:41:51.159Z,88.59
2018-05-02T02:42:51.174Z,88.59
2018-05-02T02:43:51.191Z,88.31
2018-05-02T02:44:51.209Z,87.93
2018-05-02T02:45:51.222Z,88.02
2018-05-02T02:46:51.247Z,88.78
2018-05-02T02:47:51.262Z,88.88
2018-05-02T02:48:51.278Z,88.69
2018-05-02T02:49:51.349Z,89.07
2018-05-02T02:50:51.314Z,89.17
2018-05-02T02:51:51.329Z,88.54
2018-05-02T02:52:51.345Z,88.73
2018-05-02T02:53:51.356Z,88.78
2018-05-02T02:54:51.374Z,89.02
2018-05-02T02:55:51.405Z,88.26
2018-05-02T02:56:51.405Z,88.26
2018-05-02T02:57:51.425Z,88.35
2018-05-02T02:58:51.446Z,87.30
2018-05-02T02:59:51.462Z,87.49
2018-05-02T03:00:51.473Z,87.49
2018-05-02T03:01:51.488Z,87.59
2018-05-02T03:02:51.508Z,87.49
2018-05-02T03:03:51.527Z,87.30
2018-05-02T03:04:51.739Z,89.97
2018-05-02T03:05:51.564Z,91.21
2018-05-02T03:06:51.577Z,89.88
2018-05-02T03:07:51.629Z,89.97
2018-05-02T03:08:51.609Z,90.41
2018-05-02T03:09:51.629Z,90.98
2018-05-02T03:10:51.640Z,91.27
2018-05-02T03:11:51.665Z,91.07
2018-05-02T03:12:51.677Z,91.07
2018-05-02T03:13:51.697Z,91.27
2018-05-02T03:14:51.709Z,91.27
2018-05-02T03:15:51.733Z,91.17
2018-05-02T03:16:51.741Z,90.88
2018-05-02T03:17:51.775Z,90.69
2018-05-02T03:18:51.771Z,91.36
2018-05-02T03:19:51.791Z,90.50
2018-05-02T03:20:51.812Z,90.69
2018-05-02T03:21:51.830Z,90.41
2018-05-02T03:22:51.844Z,90.12
2018-05-02T03:23:51.861Z,91.36
2018-05-02T03:24:51.877Z,90.50
2018-05-02T03:25:51.894Z,90.03
2018-05-02T03:26:51.909Z,90.69
2018-05-02T03:27:51.933Z,90.59
2018-05-02T03:28:51.941Z,91.64
2018-05-02T03:29:51.955Z,91.27
2018-05-02T03:30:51.984Z,91.17
2018-05-02T03:31:51.996Z,91.07
2018-05-02T03:32:52.037Z,90.88
2018-05-02T03:33:52.031Z,90.98
2018-05-02T03:34:52.042Z,91.36
2018-05-02T03:35:52.061Z,91.27
2018-05-02T03:36:52.076Z,91.55
2018-05-02T03:37:52.095Z,90.83
2018-05-02T03:38:52.115Z,90.73
2018-05-02T03:39:52.128Z,90.73
2018-05-02T03:40:52.146Z,89.88
2018-05-02T03:41:52.161Z,89.59
2018-05-02T03:42:52.180Z,89.21
2018-05-02T03:43:52.193Z,88.92
2018-05-02T03:44:52.250Z,89.12
2018-05-02T03:45:52.230Z,89.21
2018-05-02T03:46:52.248Z,88.83
2018-05-02T03:47:52.264Z,89.02
2018-05-02T03:48:52.280Z,89.21
2018-05-02T03:49:52.295Z,89.12
2018-05-02T03:50:52.317Z,89.02
2018-05-02T03:51:52.324Z,88.92
2018-05-02T03:52:52.344Z,89.02
2018-05-02T03:53:52.360Z,88.73
2018-05-02T03:54:52.380Z,88.83
2018-05-02T03:55:52.390Z,88.73
2018-05-02T03:56:52.405Z,89.12
2018-05-02T03:57:52.422Z,89.21
2018-05-02T03:58:52.446Z,88.92
2018-05-02T03:59:52.460Z,88.92
2018-05-02T04:00:52.474Z,88.68
2018-05-02T04:01:52.492Z,88.16
2018-05-02T04:02:52.510Z,88.45
2018-05-02T04:03:52.522Z,88.54
2018-05-02T04:04:52.544Z,88.59
2018-05-02T04:05:52.560Z,88.40
2018-05-02T04:06:52.575Z,88.87
2018-05-02T04:07:52.586Z,88.78
2018-05-02T04:08:52.611Z,88.73
2018-05-02T04:09:52.620Z,89.02
2018-05-02T04:10:52.644Z,90.07
2018-05-02T04:11:52.660Z,90.45
2018-05-02T04:12:52.675Z,90.55
2018-05-02T04:13:52.687Z,89.78
2018-05-02T04:14:52.712Z,90.73
2018-05-02T04:15:52.724Z,90.83
2018-05-02T04:16:52.739Z,90.93
2018-05-02T04:17:52.757Z,91.31
2018-05-02T04:18:52.774Z,91.41
2018-05-02T04:19:52.796Z,91.12
2018-05-02T04:20:52.806Z,91.12
2018-05-02T04:21:52.888Z,91.21
2018-05-02T04:22:52.844Z,91.60
2018-05-02T04:23:52.858Z,91.88
2018-05-02T04:24:52.883Z,91.88
2018-05-02T04:25:52.894Z,91.31
2018-05-02T04:26:52.913Z,91.41
2018-05-02T04:27:52.947Z,91.41
2018-05-02T04:28:52.941Z,90.88
2018-05-02T04:29:52.963Z,90.97
2018-05-02T04:30:52.977Z,91.45
2018-05-02T04:31:52.996Z,91.07
2018-05-02T04:32:53.013Z,90.11
2018-05-02T04:33:53.033Z,91.36
2018-05-02T04:34:53.046Z,91.16
2018-05-02T04:35:53.063Z,91.45
2018-05-02T04:36:53.081Z,91.16
2018-05-02T04:37:53.097Z,91.45
2018-05-02T04:38:53.109Z,91.64
2018-05-02T04:39:53.130Z,90.88
2018-05-02T04:40:53.235Z,90.78
2018-05-02T04:41:53.164Z,91.26
2018-05-02T04:42:53.179Z,90.59
2018-05-02T04:43:53.203Z,91.16
2018-05-02T04:44:53.214Z,90.88
2018-05-02T04:45:53.229Z,90.88
2018-05-02T04:46:53.337Z,92.50
2018-05-02T04:47:53.268Z,92.50
2018-05-02T04:48:53.277Z,92.26
2018-05-02T04:49:53.303Z,91.98
2018-05-02T04:50:53.314Z,91.60
2018-05-02T04:51:53.338Z,91.98
2018-05-02T04:52:53.470Z,92.02
2018-05-02T04:53:53.369Z,92.65
2018-05-02T04:54:53.378Z,92.65
2018-05-02T04:55:53.402Z,92.83
2018-05-02T04:56:53.416Z,92.31
2018-05-02T04:57:53.432Z,92.26
2018-05-02T04:58:53.465Z,92.26
2018-05-02T05:00:53.488Z,92.74
2018-05-02T05:01:53.505Z,92.50
2018-05-02T05:02:53.518Z,91.69
2018-05-02T05:03:53.541Z,92.21
2018-05-02T05:04:53.585Z,91.60
2018-05-02T05:05:53.573Z,92.50
2018-05-02T05:06:53.589Z,92.46
2018-05-02T05:07:53.600Z,91.83
2018-05-02T05:08:53.621Z,92.12
2018-05-02T05:09:53.632Z,92.21
2018-05-02T05:10:53.658Z,91.93
2018-05-02T05:11:53.670Z,91.64
2018-05-02T05:12:53.690Z,91.55
2018-05-02T05:13:53.706Z,91.26
2018-05-02T05:14:53.725Z,91.26
2018-05-02T05:15:53.808Z,91.16
2018-05-02T05:16:53.753Z,91.45
2018-05-02T05:17:53.776Z,91.93
2018-05-02T05:18:53.792Z,91.64
2018-05-02T05:19:53.804Z,91.36
2018-05-02T05:20:53.829Z,91.64
2018-05-02T05:21:53.849Z,91.74
2018-05-02T05:22:53.932Z,91.45
2018-05-02T05:23:53.869Z,91.64
2018-05-02T05:24:53.890Z,91.16
2018-05-02T05:25:53.904Z,91.93
2018-05-02T05:26:53.927Z,91.55
2018-05-02T05:27:53.946Z,91.83
2018-05-02T05:28:53.959Z,91.83
2018-05-02T05:29:53.973Z,91.93
2018-05-02T05:30:54.001Z,91.83
2018-05-02T05:31:54.005Z,91.64
2018-05-02T05:32:54.023Z,91.83
2018-05-02T05:33:54.045Z,91.64
2018-05-02T05:34:54.061Z,92.02
2018-05-02T05:35:54.128Z,91.83
2018-05-02T05:36:54.096Z,91.64
2018-05-02T05:37:54.112Z,91.64
2018-05-02T05:38:54.129Z,90.97
2018-05-02T05:39:54.149Z,91.83
2018-05-02T05:40:54.165Z,91.74
2018-05-02T05:41:54.182Z,91.93
2018-05-02T05:42:54.196Z,91.74
2018-05-02T05:43:54.208Z,91.55
2018-05-02T05:44:54.230Z,91.74
2018-05-02T05:45:54.247Z,91.16
2018-05-02T05:46:54.266Z,91.16
2018-05-02T05:47:54.276Z,91.16
2018-05-02T05:48:54.302Z,91.26
2018-05-02T05:49:54.309Z,90.50
2018-05-02T05:50:54.334Z,90.69
2018-05-02T05:51:54.348Z,90.78
2018-05-02T05:52:54.365Z,91.26
2018-05-02T05:53:54.383Z,91.07
2018-05-02T05:54:54.420Z,91.26
2018-05-02T05:55:54.420Z,91.45
2018-05-02T05:56:54.436Z,90.59
2018-05-02T05:57:54.454Z,90.69
2018-05-02T05:58:54.469Z,90.11
2018-05-02T05:59:54.483Z,90.40
2018-05-02T06:00:54.543Z,90.21
2018-05-02T06:01:54.518Z,90.69
2018-05-02T06:02:54.537Z,91.36
2018-05-02T06:03:54.555Z,90.78
2018-05-02T06:04:54.575Z,91.64
2018-05-02T06:05:54.585Z,90.11
2018-05-02T06:06:54.604Z,90.31
2018-05-02T06:07:54.621Z,90.50
2018-05-02T06:08:54.634Z,90.88
2018-05-02T06:09:54.654Z,90.31
2018-05-02T06:10:54.676Z,90.02
2018-05-02T06:11:54.692Z,91.07
2018-05-02T06:12:54.707Z,90.50
2018-05-02T06:13:54.720Z,90.11
2018-05-02T06:14:54.739Z,90.06
2018-05-02T06:15:54.755Z,89.11
2018-05-02T06:16:54.776Z,89.39
2018-05-02T06:17:54.786Z,90.11
2018-05-02T06:18:54.803Z,90.54
2018-05-02T06:19:54.827Z,90.06
2018-05-02T06:20:54.844Z,89.83
2018-05-02T06:21:54.865Z,89.06
2018-05-02T06:22:54.880Z,89.01
2018-05-02T06:23:54.893Z,88.63
2018-05-02T06:24:54.909Z,88.44
2018-05-02T06:25:54.925Z,87.77
2018-05-02T06:26:54.943Z,87.68
2018-05-02T06:27:54.965Z,87.43
2018-05-02T06:28:54.982Z,86.76
2018-05-02T06:29:54.999Z,86.47
2018-05-02T06:30:55.074Z,87.58
2018-05-02T06:31:55.087Z,87.96
2018-05-02T06:32:55.050Z,87.72
2018-05-02T06:33:55.063Z,87.68
2018-05-02T06:34:55.087Z,86.57
2018-05-02T06:35:55.101Z,86.38
2018-05-02T06:36:55.119Z,85.81
2018-05-02T06:37:55.297Z,86.86
2018-05-02T06:38:55.152Z,86.38
2018-05-02T06:39:55.171Z,85.62
2018-05-02T06:40:55.184Z,86.67
2018-05-02T06:41:55.209Z,86.76
2018-05-02T06:42:55.226Z,86.10
2018-05-02T06:43:55.237Z,87.05
2018-05-02T06:44:55.259Z,87.82
2018-05-02T06:45:55.343Z,86.76
2018-05-02T06:46:55.295Z,86.10
2018-05-02T06:47:55.306Z,85.52
2018-05-02T06:48:55.329Z,85.62
2018-05-02T06:49:55.342Z,84.66
2018-05-02T06:50:55.361Z,84.76
2018-05-02T06:51:55.379Z,84.09
2018-05-02T06:52:55.394Z,84.56
2018-05-02T06:53:55.410Z,83.90
2018-05-02T06:54:55.434Z,84.38
2018-05-02T06:55:55.444Z,83.70
2018-05-02T06:56:55.463Z,83.13
2018-05-02T06:57:55.484Z,82.65
2018-05-02T06:58:55.503Z,82.89
2018-05-02T06:59:55.515Z,82.89
2018-05-02T07:00:55.618Z,82.22
2018-05-02T07:01:55.550Z,81.93
2018-05-02T07:02:55.569Z,81.16
2018-05-02T07:03:55.586Z,81.07
2018-05-02T07:04:55.605Z,80.44
2018-05-02T07:05:55.624Z,80.40
2018-05-02T07:06:55.639Z,80.59
2018-05-02T07:07:55.657Z,80.21
2018-05-02T07:08:55.674Z,80.40
2018-05-02T07:09:55.692Z,79.87
2018-05-02T07:10:55.754Z,80.25
2018-05-02T07:11:55.728Z,79.39
2018-05-02T07:12:55.754Z,79.00
2018-05-02T07:13:55.763Z,79.20
2018-05-02T07:14:55.782Z,79.00
2018-05-02T07:15:55.803Z,78.53
2018-05-02T07:16:55.817Z,77.48
2018-05-02T07:17:55.835Z,76.71
2018-05-02T07:18:55.852Z,77.48
2018-05-02T07:19:55.872Z,76.62
2018-05-02T07:20:55.977Z,76.23
2018-05-02T07:21:55.904Z,77.09
2018-05-02T07:22:55.923Z,77.95
2018-05-02T07:23:55.955Z,77.57
2018-05-02T07:24:55.963Z,75.76
2018-05-02T07:25:55.974Z,75.09
2018-05-02T07:26:55.994Z,74.90
2018-05-02T07:27:56.016Z,72.98
2018-05-02T07:28:56.031Z,73.08
2018-05-02T07:29:56.048Z,73.84
2018-05-02T07:30:56.068Z,73.55
2018-05-02T07:31:56.086Z,73.17
2018-05-02T07:32:56.240Z,70.62
2018-05-02T07:33:56.120Z,70.53
2018-05-02T07:34:56.136Z,71.11
2018-05-02T07:35:56.156Z,70.15
2018-05-02T07:36:56.177Z,70.18
2018-05-02T07:37:56.195Z,70.37
2018-05-02T07:38:56.252Z,70.76
2018-05-02T07:39:56.229Z,69.60
2018-05-02T07:40:56.250Z,68.55
2018-05-02T07:41:56.273Z,69.51
2018-05-02T07:42:56.285Z,69.99
2018-05-02T07:43:56.302Z,70.37
2018-05-02T07:44:56.321Z,72.06
2018-05-02T07:45:56.338Z,71.91
2018-05-02T07:46:56.357Z,70.18
2018-05-02T07:47:56.377Z,69.51
2018-05-02T07:48:56.392Z,67.82
2018-05-02T07:49:56.436Z,67.15
2018-05-02T07:50:56.431Z,66.77
2018-05-02T07:51:56.450Z,66.19
2018-05-02T07:52:56.468Z,66.25
2018-05-02T07:53:56.487Z,67.66
2018-05-02T07:54:56.511Z,68.10
2018-05-02T07:55:56.524Z,69.54
2018-05-02T07:56:56.537Z,69.73
2018-05-02T07:57:56.572Z,69.67
2018-05-02T07:58:56.574Z,68.77
2018-05-02T07:59:56.592Z,69.67
2018-05-02T08:02:56.656Z,68.23
2018-05-02T08:09:56.772Z,67.02
2018-05-02T08:10:56.825Z,67.02
2018-05-02T08:11:56.823Z,67.41
2018-05-02T08:12:56.830Z,67.88
2018-05-02T08:13:56.848Z,67.41
2018-05-02T08:14:56.861Z,67.60
2018-05-02T08:15:56.879Z,67.11
2018-05-02T08:16:56.898Z,66.83
2018-05-02T08:17:56.919Z,67.41
2018-05-02T08:18:56.938Z,67.72
2018-05-02T08:19:56.954Z,66.58
2018-05-02T08:20:56.973Z,66.29
2018-05-02T08:21:57.053Z,65.62
2018-05-02T08:22:57.056Z,65.17
2018-05-02T08:23:57.029Z,64.63
2018-05-02T08:24:57.042Z,64.34
2018-05-02T08:25:57.061Z,64.69
2018-05-02T08:26:57.085Z,67.11
2018-05-02T08:27:57.098Z,67.91
2018-05-02T08:28:57.118Z,68.05
2018-05-02T08:29:57.136Z,65.78
2018-05-02T08:30:57.155Z,63.89
2018-05-02T08:31:57.173Z,63.32
2018-05-02T08:32:57.203Z,62.39
2018-05-02T08:33:57.217Z,62.68
2018-05-02T08:34:57.234Z,63.70
2018-05-02T08:35:57.246Z,65.36
2018-05-02T08:36:57.269Z,65.20
2018-05-02T08:37:57.289Z,64.37
2018-05-02T08:38:57.400Z,63.99
2018-05-02T08:39:57.325Z,64.09
2018-05-02T08:40:57.339Z,63.06
2018-05-02T08:41:57.361Z,63.79
2018-05-02T08:42:57.376Z,63.32
2018-05-02T08:43:57.396Z,64.37
2018-05-02T08:44:57.501Z,63.35
2018-05-02T08:45:57.436Z,62.42
2018-05-02T08:46:57.455Z,61.11
2018-05-02T08:47:57.476Z,60.34
2018-05-02T08:48:57.527Z,59.83
2018-05-02T08:49:57.608Z,62.07
2018-05-02T08:50:57.532Z,64.28
2018-05-02T08:51:57.550Z,65.65
2018-05-02T08:52:57.628Z,63.54
2018-05-02T08:53:57.591Z,63.25
2018-05-02T08:54:57.611Z,64.47
2018-05-02T08:55:57.625Z,66.39
2018-05-02T08:56:57.650Z,66.29
2018-05-02T08:57:57.663Z,64.37
2018-05-02T08:58:57.749Z,63.83
2018-05-02T08:59:57.704Z,63.06
2018-05-02T09:01:57.758Z,63.16
2018-05-02T09:02:57.763Z,63.79
2018-05-02T09:03:57.784Z,67.28
2018-05-02T09:04:57.858Z,68.37
2018-05-02T09:05:57.820Z,68.08
2018-05-02T09:06:57.841Z,67.32
2018-05-02T09:07:57.863Z,65.81
2018-05-02T09:08:57.965Z,65.39
2018-05-02T09:09:57.896Z,65.23
2018-05-02T09:10:57.970Z,64.95
2018-05-02T09:11:57.939Z,65.20
2018-05-02T09:12:57.994Z,64.59
2018-05-02T09:13:57.975Z,65.26
2018-05-02T09:14:57.997Z,66.80
2018-05-02T09:15:58.017Z,67.91
2018-05-02T09:16:58.038Z,67.85
2018-05-02T09:17:58.049Z,67.57
2018-05-02T09:18:58.079Z,67.57
2018-05-02T09:19:58.085Z,68.24
2018-05-02T09:20:58.111Z,68.14
2018-05-02T09:21:58.204Z,67.76
2018-05-02T09:22:58.143Z,69.01
2018-05-02T09:23:58.229Z,69.58
2018-05-02T09:24:58.181Z,69.64
2018-05-02T09:25:58.205Z,68.30
2018-05-02T09:26:58.279Z,66.48
2018-05-02T09:27:58.244Z,66.96
2018-05-02T09:28:58.260Z,68.01
2018-05-02T09:29:58.273Z,67.44
2018-05-02T09:30:58.291Z,64.95
2018-05-02T09:31:58.318Z,66.58
2018-05-02T09:32:58.337Z,67.25
2018-05-02T09:33:58.397Z,66.03
2018-05-02T09:34:58.400Z,66.51
2018-05-02T09:35:58.388Z,65.75
2018-05-02T09:36:58.405Z,66.80
2018-05-02T09:37:58.425Z,67.28
2018-05-02T09:38:58.446Z,67.95
2018-05-02T09:39:58.466Z,67.82
2018-05-02T09:40:58.539Z,67.82
2018-05-02T09:41:58.494Z,68.59
2018-05-02T09:42:58.521Z,68.68
2018-05-02T09:43:58.539Z,68.11
2018-05-02T09:44:58.556Z,67.76
2018-05-02T09:45:58.627Z,67.66
2018-05-02T09:46:58.586Z,66.61
2018-05-02T09:47:58.607Z,65.88
2018-05-02T09:48:58.628Z,64.43
2018-05-02T09:49:58.653Z,64.59
2018-05-02T09:50:58.665Z,62.30
2018-05-02T09:51:58.686Z,61.27
2018-05-02T09:52:58.700Z,60.70
2018-05-02T09:53:58.720Z,60.05
2018-05-02T09:54:58.743Z,61.40
2018-05-02T09:55:58.755Z,61.11
2018-05-02T09:56:58.776Z,62.07
2018-05-02T09:57:58.793Z,62.55
2018-05-02T09:58:58.815Z,61.98
2018-05-02T09:59:58.838Z,61.62
2018-05-02T10:00:58.853Z,61.43
2018-05-02T10:01:58.874Z,60.85
2018-05-02T10:02:58.892Z,60.25
2018-05-02T10:03:59.062Z,61.14
2018-05-02T10:04:58.989Z,61.49
2018-05-02T10:05:58.944Z,62.26
2018-05-02T10:06:58.964Z,61.75
2018-05-02T10:07:58.981Z,60.96
2018-05-02T10:08:59.000Z,62.90
2018-05-02T10:09:59.071Z,62.13
2018-05-02T10:10:59.104Z,60.03
2018-05-02T10:11:59.060Z,60.79
2018-05-02T10:12:59.077Z,61.98
2018-05-02T10:13:59.096Z,61.49
2018-05-02T10:14:59.116Z,60.66
2018-05-02T10:15:59.184Z,60.08
2018-05-02T10:16:59.157Z,59.70
2018-05-02T10:17:59.169Z,60.85
2018-05-02T10:18:59.188Z,61.43
2018-05-02T10:19:59.210Z,61.88
2018-05-02T10:20:59.225Z,62.71
2018-05-02T10:21:59.250Z,63.96
2018-05-02T10:22:59.301Z,63.29
2018-05-02T10:23:59.293Z,64.66
2018-05-02T10:24:59.309Z,63.12
2018-05-02T10:25:59.316Z,62.36
2018-05-02T10:26:59.338Z,63.89
2018-05-02T10:27:59.361Z,63.96
2018-05-02T10:28:59.434Z,64.53
2018-05-02T10:29:59.400Z,65.17
2018-05-02T10:30:59.411Z,65.68
2018-05-02T10:31:59.437Z,65.49
2018-05-02T10:32:59.463Z,65.23
2018-05-02T10:33:59.479Z,64.22
2018-05-02T10:34:59.535Z,62.01
2018-05-02T10:35:59.530Z,61.84
2018-05-02T10:36:59.593Z,62.29
2018-05-02T10:37:59.548Z,64.82
2018-05-02T10:38:59.589Z,66.35
2018-05-02T10:39:59.587Z,65.78
2018-05-02T10:40:59.616Z,66.26
2018-05-02T10:41:59.632Z,65.39
2018-05-02T10:42:59.664Z,64.76
2018-05-02T10:43:59.663Z,64.37
2018-05-02T10:44:59.684Z,64.66
2018-05-02T10:45:59.696Z,64.59
2018-05-02T10:46:59.750Z,62.87
2018-05-02T10:47:59.739Z,63.09
2018-05-02T10:48:59.758Z,62.96
2018-05-02T10:49:59.792Z,63.35
2018-05-02T10:50:59.800Z,63.51
2018-05-02T10:51:59.893Z,65.05
2018-05-02T10:52:59.924Z,65.33
2018-05-02T10:54:59.874Z,64.02
2018-05-02T10:55:59.981Z,63.99
2018-05-02T10:56:59.908Z,65.68
2018-05-02T10:57:59.981Z,67.12
2018-05-02T10:59:59.988Z,66.55
2018-05-02T11:01:00.022Z,66.29
2018-05-02T11:02:00.030Z,65.97
2018-05-02T11:04:00.106Z,69.13
2018-05-02T11:05:00.060Z,71.72
2018-05-02T11:06:00.094Z,73.70
2018-05-02T11:07:00.175Z,75.71
2018-05-02T11:08:00.121Z,76.86
2018-05-02T11:09:00.141Z,77.59
2018-05-02T11:10:00.204Z,78.36
2018-05-02T11:11:00.172Z,79.57
2018-05-02T11:12:00.192Z,80.90
2018-05-02T11:13:00.219Z,81.38
2018-05-02T11:14:00.226Z,81.54
2018-05-02T11:15:00.247Z,82.78
2018-05-02T11:16:00.343Z,84.02
2018-05-02T11:17:00.283Z,84.36
2018-05-02T11:18:00.299Z,86.08
2018-05-02T11:19:00.325Z,85.99
2018-05-02T11:20:00.344Z,86.94
2018-05-02T11:21:00.392Z,86.94
2018-05-02T11:22:00.510Z,85.80
2018-05-02T11:23:00.400Z,84.08
2018-05-02T11:24:00.417Z,84.17
2018-05-02T11:25:00.429Z,83.22
2018-05-02T11:26:00.447Z,83.03
2018-05-02T11:27:00.546Z,83.22
2018-05-02T11:28:00.535Z,83.31
2018-05-02T11:29:00.498Z,82.93
2018-05-02T11:30:00.514Z,83.22
2018-05-02T11:31:00.531Z,82.74
2018-05-02T11:32:00.552Z,83.12
2018-05-02T11:33:00.568Z,82.45
2018-05-02T11:34:00.585Z,83.12
2018-05-02T11:35:00.611Z,82.74
2018-05-02T11:36:00.640Z,82.26
2018-05-02T11:37:00.638Z,82.35
2018-05-02T11:38:00.674Z,82.35
2018-05-02T11:39:00.679Z,82.78
2018-05-02T11:40:00.766Z,82.59
2018-05-02T11:41:00.717Z,82.35
2018-05-02T11:42:00.734Z,82.93
2018-05-02T11:43:00.746Z,82.74
2018-05-02T11:44:00.766Z,83.69
2018-05-02T11:45:00.782Z,84.55
2018-05-02T11:46:00.795Z,84.94
2018-05-02T11:47:00.815Z,85.13
2018-05-02T11:48:00.839Z,86.08
2018-05-02T11:49:00.908Z,86.85
2018-05-02T11:50:00.864Z,87.90
2018-05-02T11:51:00.890Z,86.18
2018-05-02T11:52:00.910Z,84.75
2018-05-02T11:53:00.922Z,84.17
2018-05-02T11:54:00.936Z,83.64
2018-05-02T11:55:00.955Z,82.40
2018-05-02T11:56:00.969Z,82.20
2018-05-02T11:57:00.994Z,82.20
2018-05-02T11:58:01.014Z,83.16
2018-05-02T11:59:01.028Z,82.59
2018-05-02T12:00:01.085Z,82.01
2018-05-02T12:01:01.066Z,81.25
2018-05-02T12:02:01.095Z,80.87
2018-05-02T12:03:01.097Z,80.29
2018-05-02T12:04:01.114Z,79.81
2018-05-02T12:05:01.140Z,80.00
2018-05-02T12:06:01.145Z,79.24
2018-05-02T12:07:01.169Z,79.05
2018-05-02T12:08:01.190Z,78.19
2018-05-02T12:09:01.205Z,78.09
2018-05-02T12:10:01.224Z,77.36
2018-05-02T12:11:01.242Z,76.50
2018-05-02T12:12:01.256Z,76.31
2018-05-02T12:13:01.278Z,76.12
2018-05-02T12:14:01.290Z,76.12
2018-05-02T12:15:01.360Z,75.35
2018-05-02T12:16:01.367Z,75.35
2018-05-02T12:17:01.344Z,75.64
2018-05-02T12:18:01.365Z,76.21
2018-05-02T12:19:01.381Z,76.12
2018-05-02T12:20:01.406Z,76.50
2018-05-02T12:21:01.420Z,76.12
2018-05-02T12:22:01.474Z,76.02
2018-05-02T12:23:01.456Z,75.83
2018-05-02T12:24:01.469Z,75.64
2018-05-02T12:25:01.493Z,74.68
2018-05-02T12:26:01.513Z,74.68
2018-05-02T12:27:01.527Z,74.68
2018-05-02T12:28:01.543Z,74.97
2018-05-02T12:29:01.567Z,74.43
2018-05-02T12:30:01.582Z,73.86
2018-05-02T12:31:01.599Z,73.91
2018-05-02T12:32:01.617Z,73.34
2018-05-02T12:33:01.639Z,72.58
2018-05-02T12:34:01.659Z,71.71
2018-05-02T12:35:01.673Z,70.37
2018-05-02T12:36:01.685Z,70.09
2018-05-02T12:37:01.706Z,70.03
2018-05-02T12:38:01.726Z,70.37
2018-05-02T12:39:01.795Z,70.95
2018-05-02T12:40:01.759Z,71.33
2018-05-02T12:41:01.779Z,71.94
2018-05-02T12:42:01.799Z,71.42
2018-05-02T12:43:01.820Z,72.38
2018-05-02T12:44:01.836Z,72.77
2018-05-02T12:45:01.911Z,72.86
2018-05-02T12:46:01.884Z,72.52
2018-05-02T12:47:01.891Z,72.77
2018-05-02T12:48:01.901Z,73.76
2018-05-02T12:49:01.920Z,73.57
2018-05-02T12:50:01.941Z,72.99
2018-05-02T12:51:02.092Z,72.61
2018-05-02T12:52:01.979Z,71.46
2018-05-02T12:53:02.002Z,71.81
2018-05-02T12:54:02.014Z,72.61
2018-05-02T12:55:02.035Z,73.09
2018-05-02T12:56:02.191Z,73.24
2018-05-02T12:57:02.115Z,74.65
2018-05-02T12:58:02.092Z,75.79
2018-05-02T12:59:02.106Z,76.94
2018-05-02T13:00:02.122Z,77.42
2018-05-02T13:01:02.145Z,77.42
2018-05-02T13:02:02.161Z,75.98
2018-05-02T13:03:02.355Z,76.75
2018-05-02T13:04:02.195Z,77.13
2018-05-02T13:05:02.208Z,76.75
2018-05-02T13:06:02.226Z,77.04